»·PEaware :: N165PS KSAN-KEMT

N165PS :: KSAN-KEMT

FLIGHT INFORMATION

Flight Status: Arrived
Operator: Privately registered:
United States
More flights under this callsign
Pilot: Philip A. (19141)
Aircraft: CESSNA 172 SKYHAWK
(C172)
More flights by this aircraft type
Origin: KSAN San Diego Intl-Lindbergh
United States
Destination: KEMT El Monte
United States
More flights between these airports :: More routes between these airports
Route: OCN V23 DANAH V363 POM
File this flight plan on PilotEdge
Remarks:
Altitude:
(Current/Filed)
6,000ft
Speed:
(Current/Filed)
120kts
Departed: 29-Jul-18 10:23 PM
Arrived: 29-Jul-18 11:14 PM
Distance/Time
Traveled:
91nm/0:51
Distance/Time
To Go:
Arrived

Flight Plot

Page will automatically refresh every two minutes.


Map Options




Map Legend


Flown Route
Filed Route
Departure Airport
Arrival Airport
Navaid (VOR, NDB)
Fix

Horizontal Profiles

Position Reports

Time Latitude Longitude Heading Altitude Ground
Speed
29-Jul-18 22:11 32.735699 -117.185497 242 21ft 0kts
29-Jul-18 22:12 32.735699 -117.185497 242 21ft 0kts
29-Jul-18 22:13 32.735699 -117.185497 242 21ft 0kts
29-Jul-18 22:14 32.735699 -117.185497 242 21ft 0kts
29-Jul-18 22:15 32.735699 -117.185497 242 21ft 0kts
29-Jul-18 22:16 32.735699 -117.185497 242 21ft 0kts
29-Jul-18 22:17 32.735699 -117.185497 242 21ft 0kts
29-Jul-18 22:18 32.735699 -117.185497 242 21ft 0kts
29-Jul-18 22:19 32.735647 -117.184976 125 21ft 9kts
29-Jul-18 22:20 32.733090 -117.182906 106 21ft 14kts
29-Jul-18 22:21 32.731687 -117.177246 106 21ft 16kts
29-Jul-18 22:22 32.730909 -117.175465 139 21ft 0kts
29-Jul-18 22:23 32.730337 -117.176428 286 21ft 35kts
29-Jul-18 22:24 32.738032 -117.198747 322 592ft 85kts
29-Jul-18 22:25 32.756233 -117.214774 320 1410ft 83kts
29-Jul-18 22:26 32.775031 -117.230190 321 2175ft 82kts
29-Jul-18 22:27 32.793621 -117.245693 326 2888ft 82kts
29-Jul-18 22:28 32.815653 -117.253645 341 3556ft 84kts
29-Jul-18 22:29 32.838187 -117.260582 333 4181ft 85kts
29-Jul-18 22:30 32.860430 -117.270573 346 4779ft 87kts
29-Jul-18 22:31 32.883457 -117.280370 336 5343ft 89kts
29-Jul-18 22:32 32.906480 -117.291401 341 5882ft 89kts
29-Jul-18 22:33 32.932135 -117.303052 342 6079ft 107kts
29-Jul-18 22:34 32.962086 -117.312445 346 6047ft 117kts
29-Jul-18 22:35 32.993839 -117.323558 345 5968ft 119kts
29-Jul-18 22:36 33.025671 -117.333150 344 5919ft 118kts
29-Jul-18 22:37 33.056055 -117.346185 336 5980ft 113kts
29-Jul-18 22:38 33.085278 -117.359502 340 6069ft 113kts
29-Jul-18 22:39 33.115024 -117.371069 342 6130ft 113kts
29-Jul-18 22:40 33.146310 -117.382530 342 6019ft 121kts
29-Jul-18 22:41 33.178275 -117.393724 345 5973ft 119kts
29-Jul-18 22:42 33.210151 -117.403998 341 5925ft 118kts
29-Jul-18 22:43 33.241220 -117.417991 322 5798ft 122kts
29-Jul-18 22:44 33.263013 -117.447114 314 5943ft 115kts
29-Jul-18 22:45 33.286013 -117.474854 313 6018ft 122kts
29-Jul-18 22:46 33.308333 -117.504437 309 6067ft 120kts
29-Jul-18 22:47 33.330590 -117.534221 314 6060ft 120kts
29-Jul-18 22:48 33.355055 -117.561125 320 6050ft 119kts
29-Jul-18 22:49 33.381775 -117.584870 323 6037ft 119kts
29-Jul-18 22:50 33.412397 -117.601156 340 5998ft 120kts
29-Jul-18 22:51 33.443752 -117.615107 338 5964ft 121kts
29-Jul-18 22:52 33.474807 -117.629740 336 5963ft 119kts
29-Jul-18 22:53 33.505320 -117.645982 339 5959ft 120kts
29-Jul-18 22:54 33.535886 -117.662047 336 5956ft 121kts
29-Jul-18 22:55 33.567104 -117.677336 339 5957ft 121kts
29-Jul-18 22:56 33.598108 -117.692881 335 5967ft 122kts
29-Jul-18 22:57 33.628415 -117.709547 338 5998ft 121kts
29-Jul-18 22:58 33.659690 -117.724087 340 6026ft 120kts
29-Jul-18 22:59 33.690668 -117.737316 334 6043ft 120kts
29-Jul-18 23:00 33.721332 -117.752740 334 6015ft 122kts
29-Jul-18 23:01 33.747618 -117.774698 324 5976ft 123kts
29-Jul-18 23:02 33.774172 -117.798308 324 5950ft 122kts
29-Jul-18 23:03 33.801540 -117.822291 324 5907ft 123kts
29-Jul-18 23:04 33.828737 -117.847462 326 5876ft 124kts
29-Jul-18 23:05 33.857533 -117.870167 328 5805ft 127kts
29-Jul-18 23:06 33.888079 -117.892262 330 5367ft 128kts
29-Jul-18 23:07 33.918170 -117.914517 327 4843ft 126kts
29-Jul-18 23:08 33.948113 -117.936693 327 4010ft 126kts
29-Jul-18 23:09 33.976072 -117.957753 327 3376ft 113kts
29-Jul-18 23:10 34.001343 -117.978779 325 2836ft 106kts
29-Jul-18 23:11 34.022962 -118.001366 313 2280ft 100kts
29-Jul-18 23:12 34.039121 -118.025548 306 1744ft 78kts
29-Jul-18 23:13 34.051656 -118.045378 308 1106ft 70kts
29-Jul-18 23:14 34.069713 -118.044174 25 572ft 72kts
29-Jul-18 23:15 34.083481 -118.035783 66 299ft 5kts

Navigation Log

Ident Type
1. KSAN Airport
2. OCN Navaid
3. KELPS Fix
4. DANAH Fix
5. ELB Navaid
6. JOGIT Fix
7. POXKU Fix
8. PRADO Fix
9. BAYJY Fix
10. POM Navaid
11. KEMT Airport